createdAt,value
2023-05-12T05:30:34.892Z,8.18
2023-05-12T05:33:02.726Z,9.38
2023-05-12T05:35:31.411Z,8.05
2023-05-12T05:37:59.003Z,7.72
2023-05-12T05:40:26.506Z,8.57
2023-05-12T05:42:54.005Z,7.43
2023-05-12T05:45:21.605Z,7.20
2023-05-12T05:47:52.229Z,7.57
2023-05-12T05:50:19.401Z,8.18
2023-05-12T05:52:47.010Z,8.18
2023-05-12T05:55:14.578Z,7.55
2023-05-12T05:57:42.557Z,7.40
2023-05-12T06:00:10.599Z,7.63
2023-05-12T06:02:38.930Z,7.05
2023-05-12T06:05:06.976Z,8.18
2023-05-12T06:07:35.905Z,6.97
2023-05-12T06:10:04.202Z,6.30
2023-05-12T06:12:31.779Z,7.72
2023-05-12T06:14:59.294Z,6.75
2023-05-12T06:17:28.505Z,6.97
2023-05-12T06:19:56.979Z,7.68
2023-05-12T06:22:25.164Z,7.03
2023-05-12T06:24:52.707Z,6.75
2023-05-12T06:27:20.550Z,6.88
2023-05-12T06:29:49.111Z,7.15
2023-05-12T06:32:17.325Z,6.00
2023-05-12T06:34:44.979Z,6.32
2023-05-12T06:37:12.778Z,6.05
2023-05-12T06:39:40.595Z,6.25
2023-05-12T06:42:07.907Z,5.65
2023-05-12T06:44:35.580Z,6.28
2023-05-12T06:47:03.331Z,6.72
2023-05-12T06:49:31.357Z,6.43
2023-05-12T06:51:58.758Z,5.38
2023-05-12T06:54:26.469Z,6.80
2023-05-12T06:56:54.166Z,5.00
2023-05-12T06:59:23.456Z,4.20
2023-05-12T07:01:51.294Z,4.97
2023-05-12T07:04:19.135Z,5.32
2023-05-12T07:06:47.196Z,4.75
2023-05-12T07:09:14.852Z,5.22
2023-05-12T07:11:42.444Z,4.93
2023-05-12T07:14:09.975Z,4.22
2023-05-12T07:16:37.948Z,4.95
2023-05-12T07:19:08.912Z,4.90
2023-05-12T07:21:37.322Z,4.10
2023-05-12T07:24:06.279Z,4.30
2023-05-12T07:26:34.168Z,3.70
2023-05-12T07:29:02.806Z,4.60
2023-05-12T07:31:30.499Z,3.72
2023-05-12T07:33:58.071Z,3.53
2023-05-12T07:36:26.727Z,4.25
2023-05-12T07:38:54.364Z,3.92
2023-05-12T07:41:24.446Z,4.20
2023-05-12T07:43:52.092Z,3.67
2023-05-12T07:46:19.688Z,4.18
2023-05-12T07:48:47.237Z,4.22
2023-05-12T07:51:14.820Z,3.65
2023-05-12T07:53:43.185Z,4.30
2023-05-12T07:56:11.220Z,5.07
2023-05-12T07:58:39.284Z,4.03
2023-05-12T08:01:09.024Z,4.63
2023-05-12T08:03:36.804Z,4.38
2023-05-12T08:06:08.320Z,4.53
2023-05-12T08:08:36.570Z,3.55
2023-05-12T08:11:06.384Z,3.30
2023-05-12T08:13:36.235Z,4.32
2023-05-12T08:16:04.299Z,3.67
2023-05-12T08:18:33.306Z,3.28
2023-05-12T08:21:01.329Z,3.22
2023-05-12T08:23:31.355Z,2.70
2023-05-12T08:26:02.644Z,2.92
2023-05-12T08:28:31.737Z,2.17
2023-05-12T08:31:00.143Z,2.33
2023-05-12T08:33:31.359Z,1.95
2023-05-12T08:36:01.721Z,2.40
2023-05-12T08:38:35.534Z,1.67
2023-05-12T08:41:40.963Z,1.63
2023-05-12T08:44:10.008Z,3.28
2023-05-12T08:46:42.613Z,1.55
2023-05-12T08:49:12.741Z,1.20
2023-05-12T08:51:58.554Z,0.60
2023-05-12T08:54:31.319Z,1.23
2023-05-12T08:57:10.418Z,1.13
2023-05-12T08:59:39.930Z,0.88
2023-05-12T09:02:15.564Z,0.80
2023-05-12T09:04:55.238Z,0.82
2023-05-12T09:07:26.824Z,1.05
2023-05-12T09:09:59.037Z,0.93
2023-05-12T09:12:34.527Z,0.93
2023-05-12T09:15:14.982Z,1.17
2023-05-12T09:17:42.924Z,1.02
2023-05-12T09:20:23.899Z,1.27
2023-05-12T09:23:19.633Z,1.63
2023-05-12T09:25:48.096Z,1.85
2023-05-12T09:28:16.027Z,1.60
2023-05-12T09:30:43.823Z,1.75
2023-05-12T09:33:15.039Z,1.80
2023-05-12T09:35:45.293Z,1.90
2023-05-12T09:38:14.850Z,1.60
2023-05-12T09:40:46.136Z,1.58
2023-05-12T09:43:16.123Z,1.52
2023-05-12T09:45:46.488Z,1.60
2023-05-12T09:48:14.377Z,1.38
2023-05-12T09:50:50.554Z,1.13
2023-05-12T09:53:42.875Z,1.45
2023-05-12T09:56:13.300Z,1.30
2023-05-12T09:58:50.581Z,1.33
2023-05-12T10:01:23.909Z,1.52
2023-05-12T10:03:55.216Z,1.25
2023-05-12T10:06:28.788Z,2.10
2023-05-12T10:09:08.771Z,2.15
2023-05-12T10:11:36.952Z,2.33
2023-05-12T10:14:13.061Z,1.70
2023-05-12T10:16:42.002Z,2.28
2023-05-12T10:19:11.101Z,2.63
2023-05-12T10:21:40.005Z,2.30
2023-05-12T10:24:19.422Z,2.30
2023-05-12T10:26:47.650Z,2.38
2023-05-12T10:29:16.126Z,2.30
2023-05-12T10:32:05.634Z,2.17
2023-05-12T10:34:34.972Z,2.05
2023-05-12T10:37:11.473Z,2.17
2023-05-12T10:39:51.410Z,2.42
2023-05-12T10:42:28.014Z,1.92
2023-05-12T10:44:56.711Z,2.05
2023-05-12T10:47:41.951Z,2.72
2023-05-12T10:50:15.076Z,2.25
2023-05-12T10:53:02.370Z,2.83
2023-05-12T10:55:52.371Z,2.42
2023-05-12T10:58:21.234Z,1.83
2023-05-12T11:00:52.755Z,2.20
2023-05-12T11:03:25.666Z,2.05
2023-05-12T11:06:02.758Z,2.05
2023-05-12T11:08:32.515Z,1.80
2023-05-12T11:11:00.357Z,1.70
2023-05-12T11:13:28.911Z,1.80
2023-05-12T11:15:57.699Z,1.80
2023-05-12T11:18:25.370Z,1.77
2023-05-12T11:20:52.804Z,1.75
2023-05-12T11:23:29.035Z,1.90
2023-05-12T11:25:57.197Z,1.38
2023-05-12T11:28:24.808Z,1.90
2023-05-12T11:30:55.890Z,1.73
2023-05-12T11:33:23.575Z,1.60
2023-05-12T11:35:51.437Z,1.45
2023-05-12T11:38:19.542Z,1.10
2023-05-12T11:40:48.608Z,1.95
2023-05-12T11:43:20.880Z,1.25
2023-05-12T11:45:48.127Z,1.73
2023-05-12T11:48:15.441Z,2.38
2023-05-12T11:50:47.644Z,1.10
2023-05-12T11:53:19.015Z,2.03
2023-05-12T11:55:55.720Z,1.60
2023-05-12T11:58:26.690Z,1.95
2023-05-12T12:00:55.077Z,1.65
2023-05-12T12:03:22.774Z,1.20
2023-05-12T12:06:03.613Z,1.27
2023-05-12T12:08:31.834Z,1.20
2023-05-12T12:11:01.361Z,1.17
2023-05-12T12:13:30.385Z,1.27
2023-05-12T12:15:58.002Z,1.77
2023-05-12T12:18:27.171Z,2.28
2023-05-12T12:20:54.876Z,2.05
2023-05-12T12:23:22.395Z,1.27
2023-05-12T12:25:49.809Z,1.42
2023-05-12T12:28:17.301Z,1.05
2023-05-12T12:30:44.991Z,1.60
2023-05-12T12:33:13.172Z,1.85
2023-05-12T12:35:43.616Z,1.90
2023-05-12T12:38:11.127Z,2.38
2023-05-12T12:40:39.228Z,2.17
2023-05-12T12:43:06.790Z,2.28
2023-05-12T12:45:34.383Z,1.33
2023-05-12T12:48:02.844Z,1.58
2023-05-12T12:50:30.584Z,1.30
2023-05-12T12:52:58.074Z,0.70
2023-05-12T12:55:25.841Z,1.05
2023-05-12T12:57:54.849Z,0.80
2023-05-12T13:00:23.532Z,1.40
2023-05-12T13:02:53.856Z,0.95
2023-05-12T13:05:21.456Z,0.85
2023-05-12T13:07:48.766Z,1.40
2023-05-12T13:10:16.657Z,1.48
2023-05-12T13:12:44.049Z,1.50
2023-05-12T13:15:11.687Z,1.30
2023-05-12T13:17:39.258Z,1.48
2023-05-12T13:20:08.661Z,1.67
2023-05-12T13:22:36.459Z,1.80
2023-05-12T13:25:07.421Z,1.45
2023-05-12T13:27:38.645Z,1.10
2023-05-12T13:30:07.332Z,1.30
2023-05-12T13:32:37.757Z,1.58
2023-05-12T13:35:06.705Z,1.52
2023-05-12T13:37:34.319Z,1.40
2023-05-12T13:40:03.751Z,1.40
2023-05-12T13:42:31.276Z,1.33
2023-05-12T13:44:59.334Z,1.73
2023-05-12T13:47:27.481Z,1.88
2023-05-12T13:49:56.422Z,2.05
2023-05-12T13:52:23.696Z,2.15
2023-05-12T13:54:51.288Z,2.30
2023-05-12T13:57:20.674Z,3.03
2023-05-12T13:59:48.205Z,2.85
2023-05-12T14:02:15.659Z,3.05
2023-05-12T14:04:43.124Z,4.10
2023-05-12T14:07:10.318Z,3.80
2023-05-12T14:09:37.998Z,3.90
2023-05-12T14:12:06.527Z,3.28
2023-05-12T14:14:34.642Z,3.28
2023-05-12T14:17:02.276Z,3.38
2023-05-12T14:19:31.325Z,3.00
2023-05-12T14:21:59.093Z,3.25
2023-05-12T14:24:26.923Z,3.90
2023-05-12T14:26:54.723Z,4.75
2023-05-12T14:29:22.183Z,3.88
2023-05-12T14:31:49.310Z,3.17
2023-05-12T14:34:19.294Z,4.00
2023-05-12T14:36:46.883Z,4.15
2023-05-12T14:39:14.681Z,3.95
2023-05-12T14:41:41.661Z,3.67
2023-05-12T14:44:08.826Z,4.85
2023-05-12T14:46:37.424Z,4.35
2023-05-12T14:49:11.087Z,4.18
2023-05-12T14:51:40.040Z,4.10
2023-05-12T14:54:18.181Z,3.55
2023-05-12T14:56:51.851Z,3.83
2023-05-12T14:59:19.367Z,3.63
2023-05-12T15:01:46.979Z,4.30
2023-05-12T15:04:14.409Z,3.83
2023-05-12T15:06:42.623Z,2.92
2023-05-12T15:09:10.528Z,2.90
2023-05-12T15:11:38.220Z,3.00
2023-05-12T15:14:05.882Z,2.45
2023-05-12T15:16:35.260Z,3.17
2023-05-12T15:19:02.859Z,3.17
2023-05-12T15:21:30.803Z,2.95
2023-05-12T15:23:58.226Z,3.58
2023-05-12T15:26:33.213Z,3.45
2023-05-12T15:29:01.663Z,3.08
2023-05-12T15:31:29.823Z,3.38
2023-05-12T15:33:57.845Z,2.70
2023-05-12T15:36:25.293Z,2.47
2023-05-12T15:38:52.738Z,2.30
2023-05-12T15:41:20.195Z,2.95
2023-05-12T15:43:48.441Z,3.50
2023-05-12T15:46:18.320Z,2.60
2023-05-12T15:48:45.918Z,2.92
2023-05-12T15:51:13.447Z,3.38
2023-05-12T15:53:40.517Z,3.20
2023-05-12T15:56:11.552Z,2.88
2023-05-12T15:58:39.168Z,2.95
